createdAt,value
2023-03-29T00:01:35.036Z,2.00
2023-03-29T00:04:04.634Z,2.20
2023-03-29T00:06:39.513Z,2.15
2023-03-29T00:09:13.534Z,1.77
2023-03-29T00:11:47.500Z,2.67
2023-03-29T00:14:21.530Z,2.70
2023-03-29T00:16:48.908Z,2.40
2023-03-29T00:19:22.546Z,2.38
2023-03-29T00:21:59.535Z,2.20
2023-03-29T00:24:32.549Z,2.10
2023-03-29T00:26:59.329Z,2.30
2023-03-29T00:29:32.688Z,2.55
2023-03-29T00:31:59.905Z,2.35
2023-03-29T00:34:42.535Z,2.85
2023-03-29T00:37:10.005Z,2.72
2023-03-29T00:39:37.023Z,2.30
2023-03-29T00:42:10.538Z,2.13
2023-03-29T00:44:52.729Z,2.35
2023-03-29T00:47:32.842Z,2.58
2023-03-29T00:50:06.279Z,2.50
2023-03-29T00:52:41.572Z,2.88
2023-03-29T00:55:22.593Z,2.38
2023-03-29T00:57:58.681Z,2.45
2023-03-29T01:00:31.872Z,2.47
2023-03-29T01:03:08.783Z,2.63
2023-03-29T01:05:40.520Z,2.85
2023-03-29T01:08:24.633Z,2.33
2023-03-29T01:11:00.855Z,2.45
2023-03-29T01:13:45.644Z,2.47
2023-03-29T01:16:20.716Z,2.38
2023-03-29T01:18:48.255Z,2.85
2023-03-29T01:21:34.736Z,2.95
2023-03-29T01:24:48.622Z,2.38
2023-03-29T01:27:33.503Z,2.20
2023-03-29T01:30:10.648Z,2.85
2023-03-29T01:32:50.720Z,2.60
2023-03-29T01:35:17.495Z,2.70
2023-03-29T01:37:56.673Z,2.55
2023-03-29T01:40:30.650Z,2.67
2023-03-29T01:43:18.915Z,2.42
2023-03-29T01:45:56.637Z,2.30
2023-03-29T01:48:27.603Z,2.95
2023-03-29T01:51:07.706Z,2.70
2023-03-29T01:54:16.602Z,2.70
2023-03-29T01:56:52.696Z,2.50
2023-03-29T01:59:28.388Z,2.40
2023-03-29T02:02:12.708Z,2.67
2023-03-29T02:04:54.711Z,2.63
2023-03-29T02:07:26.331Z,3.28
2023-03-29T02:10:00.714Z,2.80
2023-03-29T02:12:27.491Z,3.00
2023-03-29T02:15:01.722Z,3.00
2023-03-29T02:17:30.764Z,3.10
2023-03-29T02:20:25.715Z,2.40
2023-03-29T02:23:04.651Z,2.53
2023-03-29T02:25:39.093Z,2.55
2023-03-29T02:28:06.972Z,2.50
2023-03-29T02:31:04.984Z,2.60
2023-03-29T02:33:43.342Z,2.50
2023-03-29T02:36:24.821Z,2.47
2023-03-29T02:38:52.802Z,2.70
2023-03-29T02:41:26.754Z,2.40
2023-03-29T02:44:02.773Z,3.17
2023-03-29T02:46:36.815Z,3.08
2023-03-29T02:49:05.164Z,3.28
2023-03-29T02:51:41.784Z,2.38
2023-03-29T02:54:20.513Z,2.83
2023-03-29T02:57:02.838Z,2.65
2023-03-29T02:59:30.395Z,3.60
2023-03-29T03:01:57.269Z,2.95
2023-03-29T03:04:31.820Z,2.88
2023-03-29T03:06:58.762Z,2.95
2023-03-29T03:09:31.785Z,2.75
2023-03-29T03:12:04.789Z,3.25
2023-03-29T03:14:38.374Z,2.70
2023-03-29T03:17:11.791Z,2.78
2023-03-29T03:19:45.885Z,2.60
2023-03-29T03:22:12.959Z,3.05
2023-03-29T03:24:49.846Z,2.90
2023-03-29T03:27:16.600Z,2.55
2023-03-29T03:29:43.999Z,3.00
2023-03-29T03:32:18.794Z,2.90
2023-03-29T03:34:45.753Z,2.78
2023-03-29T03:37:18.833Z,2.92
2023-03-29T03:39:52.880Z,2.80
2023-03-29T03:42:21.598Z,3.40
2023-03-29T03:44:54.843Z,3.15
2023-03-29T03:47:27.995Z,3.55
2023-03-29T03:50:01.874Z,3.10
2023-03-29T03:52:35.938Z,3.60
2023-03-29T03:55:09.998Z,2.90
2023-03-29T03:57:40.074Z,2.70
2023-03-29T04:00:26.884Z,2.80
2023-03-29T04:02:56.477Z,2.97
2023-03-29T04:05:29.933Z,2.70
2023-03-29T04:08:04.913Z,3.30
2023-03-29T04:10:37.840Z,3.72
2023-03-29T04:13:11.944Z,3.65
2023-03-29T04:15:47.929Z,3.20
2023-03-29T04:18:28.010Z,3.00
2023-03-29T04:20:54.855Z,3.17
2023-03-29T04:23:28.892Z,3.03
2023-03-29T04:25:56.657Z,3.63
2023-03-29T04:28:29.896Z,3.13
2023-03-29T04:30:56.810Z,3.13
2023-03-29T04:33:30.164Z,3.20
2023-03-29T04:35:58.338Z,3.10
2023-03-29T04:38:26.862Z,3.30
2023-03-29T04:41:12.942Z,2.80
2023-03-29T04:43:41.376Z,2.88
2023-03-29T04:46:15.962Z,2.80
2023-03-29T04:48:43.521Z,2.65
2023-03-29T04:51:16.966Z,3.22
2023-03-29T04:53:50.982Z,2.90
2023-03-29T04:56:24.930Z,2.88
2023-03-29T04:58:51.829Z,3.90
2023-03-29T05:01:25.088Z,2.60
2023-03-29T05:03:52.507Z,2.63
2023-03-29T05:06:25.977Z,3.63
2023-03-29T05:08:52.850Z,3.00
2023-03-29T05:11:20.346Z,3.70
2023-03-29T05:13:53.996Z,3.08
2023-03-29T05:16:30.304Z,3.25
2023-03-29T05:19:04.027Z,3.17
2023-03-29T05:21:30.895Z,3.10
2023-03-29T05:23:57.714Z,3.95
2023-03-29T05:26:30.995Z,3.58
2023-03-29T05:29:03.979Z,3.28
2023-03-29T05:31:30.959Z,3.20
2023-03-29T05:34:05.035Z,3.08
2023-03-29T05:36:39.254Z,3.28
2023-03-29T05:39:06.751Z,3.70
2023-03-29T05:41:40.997Z,3.47
2023-03-29T05:44:08.380Z,3.30
2023-03-29T05:46:42.005Z,3.47
2023-03-29T05:49:08.828Z,4.03
2023-03-29T05:51:42.112Z,4.40
2023-03-29T05:54:17.031Z,3.50
2023-03-29T05:56:44.009Z,3.90
2023-03-29T05:59:11.370Z,3.45
2023-03-29T06:01:46.037Z,3.75
2023-03-29T06:04:21.132Z,4.63
2023-03-29T06:06:55.548Z,3.50
2023-03-29T06:09:29.058Z,4.03
2023-03-29T06:12:04.124Z,4.57
2023-03-29T06:14:31.218Z,3.45
2023-03-29T06:17:01.746Z,3.33
2023-03-29T06:19:36.177Z,4.55
2023-03-29T06:22:03.281Z,3.72
2023-03-29T06:24:37.156Z,3.65
2023-03-29T06:27:10.279Z,4.25
2023-03-29T06:29:37.076Z,5.10
2023-03-29T06:32:03.943Z,4.38
2023-03-29T06:34:38.549Z,5.22
2023-03-29T06:37:06.007Z,5.00
2023-03-29T06:39:39.164Z,5.00
2023-03-29T06:42:21.139Z,5.47
2023-03-29T06:44:56.131Z,4.43
2023-03-29T06:47:29.081Z,5.28
2023-03-29T06:50:04.138Z,4.72
2023-03-29T06:52:37.156Z,5.25
2023-03-29T06:55:07.524Z,5.22
2023-03-29T06:57:34.546Z,5.72
2023-03-29T07:00:08.154Z,4.60
2023-03-29T07:02:42.200Z,4.80
2023-03-29T07:05:20.333Z,5.10
2023-03-29T07:07:57.174Z,4.90
2023-03-29T07:10:39.208Z,5.63
2023-03-29T07:13:08.730Z,5.00
2023-03-29T07:15:42.375Z,5.00
2023-03-29T07:18:10.474Z,5.00
2023-03-29T07:20:38.837Z,4.43
2023-03-29T07:23:14.215Z,4.82
2023-03-29T07:25:47.274Z,5.22
2023-03-29T07:28:16.524Z,5.32
2023-03-29T07:30:43.337Z,5.97
2023-03-29T07:33:21.462Z,4.83
2023-03-29T07:35:48.514Z,5.68
2023-03-29T07:38:15.736Z,5.63
2023-03-29T07:40:49.530Z,6.32
2023-03-29T07:43:24.181Z,5.95
2023-03-29T07:45:59.244Z,5.60
2023-03-29T07:48:33.253Z,5.40
2023-03-29T07:51:00.378Z,6.13
2023-03-29T07:53:36.250Z,5.97
2023-03-29T07:56:03.362Z,5.50
2023-03-29T07:58:37.304Z,5.93
2023-03-29T08:01:04.605Z,5.43
2023-03-29T08:03:31.744Z,5.88
2023-03-29T08:06:09.267Z,5.45
2023-03-29T08:08:36.667Z,5.50
2023-03-29T08:11:10.584Z,5.20
2023-03-29T08:13:37.467Z,5.93
2023-03-29T08:16:05.892Z,6.28
2023-03-29T08:18:39.255Z,8.13
2023-03-29T08:21:13.313Z,8.02
2023-03-29T08:23:40.212Z,6.47
2023-03-29T08:26:09.756Z,5.75
2023-03-29T08:28:45.611Z,7.07
2023-03-29T08:31:12.949Z,8.27
2023-03-29T08:33:39.977Z,7.70
2023-03-29T08:36:13.363Z,7.60
2023-03-29T08:38:45.402Z,6.88
2023-03-29T08:41:51.418Z,7.40
2023-03-29T08:44:54.644Z,6.95
2023-03-29T08:47:42.457Z,7.70
2023-03-29T08:50:12.320Z,6.88
2023-03-29T08:52:51.703Z,8.35
2023-03-29T08:55:31.895Z,7.88
2023-03-29T08:58:08.402Z,8.50
2023-03-29T09:00:52.388Z,8.13
2023-03-29T09:03:39.479Z,7.03
2023-03-29T09:06:13.646Z,7.68
2023-03-29T09:08:50.443Z,7.57
2023-03-29T09:11:32.709Z,7.00
2023-03-29T09:14:33.409Z,9.00
2023-03-29T09:17:19.552Z,8.27
2023-03-29T09:20:13.035Z,7.70
2023-03-29T09:23:07.686Z,6.95
2023-03-29T09:25:53.485Z,7.28
2023-03-29T09:28:44.396Z,9.30
2023-03-29T09:31:36.516Z,8.88
2023-03-29T09:34:19.468Z,8.73
2023-03-29T09:36:59.377Z,10.45
2023-03-29T09:39:28.230Z,9.82
2023-03-29T09:42:06.424Z,9.98
2023-03-29T09:44:57.360Z,9.10
2023-03-29T09:47:42.515Z,9.52
2023-03-29T09:50:31.547Z,11.35
2023-03-29T09:53:06.455Z,10.32
2023-03-29T09:55:36.273Z,10.77
2023-03-29T09:58:22.477Z,10.05
2023-03-29T10:00:50.073Z,10.52
2023-03-29T10:03:28.544Z,9.80
2023-03-29T10:06:05.475Z,11.40
2023-03-29T10:08:50.747Z,10.68
2023-03-29T10:11:30.455Z,10.23
2023-03-29T10:14:02.588Z,9.70
2023-03-29T10:16:41.583Z,11.07
2023-03-29T10:19:30.970Z,9.48
2023-03-29T10:22:07.464Z,8.90
2023-03-29T10:24:34.396Z,9.73
2023-03-29T10:27:11.477Z,10.30
2023-03-29T10:29:42.246Z,9.88
2023-03-29T10:32:30.564Z,9.65
2023-03-29T10:35:21.430Z,10.52
2023-03-29T10:38:01.521Z,10.95
2023-03-29T10:40:32.537Z,10.18
2023-03-29T10:43:38.745Z,11.30
2023-03-29T10:46:19.799Z,10.10
2023-03-29T10:48:57.794Z,10.80
2023-03-29T10:51:27.787Z,9.02
2023-03-29T10:54:01.895Z,8.50
2023-03-29T10:56:42.429Z,7.35
2023-03-29T10:59:30.821Z,9.55
2023-03-29T11:02:09.803Z,9.77
2023-03-29T11:04:56.759Z,8.93
2023-03-29T11:07:37.818Z,10.00
2023-03-29T11:10:50.502Z,9.15
2023-03-29T11:13:51.904Z,7.80
2023-03-29T11:16:59.704Z,7.43
2023-03-29T11:20:04.992Z,6.68
2023-03-29T11:22:54.255Z,6.13
2023-03-29T11:25:32.821Z,6.53
2023-03-29T11:28:28.646Z,7.00
2023-03-29T11:31:32.970Z,7.38
2023-03-29T11:34:25.854Z,10.18
2023-03-29T11:39:40.867Z,10.17
2023-03-29T11:42:14.477Z,12.48
2023-03-29T11:44:51.673Z,12.27
2023-03-29T11:47:21.470Z,12.82
2023-03-29T11:50:03.892Z,13.10
2023-03-29T11:52:42.927Z,11.80
2023-03-29T11:55:24.839Z,10.38
2023-03-29T11:58:12.905Z,9.27
2023-03-29T12:01:02.146Z,7.72
2023-03-29T12:03:53.010Z,10.68
2023-03-29T12:06:39.929Z,11.75
2023-03-29T12:09:25.217Z,11.48
2023-03-29T12:12:29.959Z,11.45
2023-03-29T12:15:29.956Z,10.93
2023-03-29T12:18:26.958Z,12.23
2023-03-29T12:21:06.079Z,10.63
2023-03-29T12:23:39.933Z,12.55
2023-03-29T12:26:19.556Z,12.85
2023-03-29T12:29:29.960Z,13.15
2023-03-29T12:32:30.956Z,13.98
2023-03-29T12:35:21.964Z,12.40
2023-03-29T12:38:24.326Z,11.53
2023-03-29T12:41:23.965Z,10.77
2023-03-29T12:43:57.991Z,10.75
2023-03-29T12:46:27.552Z,9.75
2023-03-29T12:49:12.034Z,8.65
2023-03-29T12:51:41.886Z,9.60
2023-03-29T12:54:28.248Z,9.80
2023-03-29T12:57:05.050Z,9.70
2023-03-29T12:59:49.999Z,8.32
2023-03-29T13:02:25.153Z,9.98
2023-03-29T13:04:57.523Z,8.90
2023-03-29T13:07:33.012Z,9.65
2023-03-29T13:10:03.400Z,8.60
2023-03-29T13:12:50.039Z,8.75
2023-03-29T13:15:22.989Z,7.90
2023-03-29T13:18:05.075Z,10.45
2023-03-29T13:21:26.030Z,8.63
2023-03-29T13:24:05.536Z,8.27
2023-03-29T13:26:47.052Z,8.70
2023-03-29T13:29:20.000Z,10.40
2023-03-29T13:32:16.197Z,9.55
2023-03-29T13:35:04.022Z,10.52
2023-03-29T13:37:40.008Z,10.73
2023-03-29T13:40:39.054Z,10.73
2023-03-29T13:43:19.145Z,10.10
2023-03-29T13:46:11.107Z,9.02
2023-03-29T13:48:37.910Z,8.25
2023-03-29T13:51:45.083Z,8.82
2023-03-29T13:54:27.383Z,11.52
2023-03-29T14:00:12.186Z,10.57
2023-03-29T14:02:56.125Z,10.18
2023-03-29T14:05:38.059Z,9.73
2023-03-29T14:08:25.193Z,12.23
2023-03-29T14:13:27.418Z,8.23
2023-03-29T14:16:10.172Z,9.88
2023-03-29T14:18:40.515Z,8.40
2023-03-29T14:21:15.134Z,8.98
2023-03-29T14:23:59.105Z,8.68
2023-03-29T14:26:31.625Z,7.47
2023-03-29T14:29:08.321Z,8.82
2023-03-29T14:31:37.905Z,10.32
2023-03-29T14:34:14.092Z,9.65
2023-03-29T14:36:42.956Z,10.85
2023-03-29T14:39:28.154Z,9.00
2023-03-29T14:41:59.263Z,9.45
2023-03-29T14:44:36.193Z,6.70
2023-03-29T14:47:04.798Z,7.63
2023-03-29T14:49:39.182Z,7.90
2023-03-29T14:52:06.536Z,7.18
2023-03-29T14:54:36.121Z,7.47
2023-03-29T14:57:15.211Z,7.10
2023-03-29T14:59:50.140Z,5.80
2023-03-29T15:02:38.344Z,6.43
2023-03-29T15:05:19.978Z,6.20
2023-03-29T15:07:54.219Z,6.80
2023-03-29T15:10:21.135Z,5.28
2023-03-29T15:12:55.247Z,4.90
2023-03-29T15:15:25.694Z,5.60
2023-03-29T15:17:59.194Z,6.90
2023-03-29T15:20:29.042Z,6.40
2023-03-29T15:23:21.207Z,4.50
2023-03-29T15:25:54.373Z,5.13
2023-03-29T15:28:40.216Z,3.95
2023-03-29T15:31:17.647Z,4.15
2023-03-29T15:33:51.292Z,3.45
2023-03-29T15:36:18.450Z,5.93
2023-03-29T15:38:56.243Z,5.07
2023-03-29T15:41:34.308Z,5.30
2023-03-29T15:44:08.253Z,3.30
2023-03-29T15:46:35.080Z,5.30
2023-03-29T15:49:08.220Z,5.30
2023-03-29T15:51:37.678Z,4.97
2023-03-29T15:54:11.242Z,3.80
2023-03-29T15:56:53.351Z,7.07
2023-03-29T15:59:27.238Z,4.95
2023-03-29T16:02:04.272Z,5.43
2023-03-29T16:04:38.242Z,5.28
2023-03-29T16:07:13.405Z,5.15
2023-03-29T16:09:47.298Z,4.65
2023-03-29T16:12:22.253Z,4.70
2023-03-29T16:14:49.048Z,4.00
2023-03-29T16:17:22.330Z,4.43
2023-03-29T16:19:49.192Z,3.83
2023-03-29T16:22:22.291Z,3.20
2023-03-29T16:24:49.135Z,3.38
2023-03-29T16:27:24.345Z,3.30
2023-03-29T16:29:51.249Z,3.40
2023-03-29T16:32:18.287Z,3.55
2023-03-29T16:34:51.359Z,3.10
2023-03-29T16:37:24.264Z,2.72
2023-03-29T16:39:57.316Z,2.63
2023-03-29T16:42:24.123Z,2.80
2023-03-29T16:44:57.320Z,2.38
2023-03-29T16:47:30.377Z,3.15
2023-03-29T16:50:03.479Z,2.85
2023-03-29T16:52:31.223Z,2.83
2023-03-29T16:54:58.026Z,2.58
2023-03-29T16:57:33.342Z,3.40
2023-03-29T17:00:00.359Z,2.30
2023-03-29T17:02:27.353Z,2.70
2023-03-29T17:05:00.366Z,3.35
2023-03-29T17:07:34.388Z,2.67
2023-03-29T17:10:04.506Z,2.60
2023-03-29T17:12:38.386Z,2.50
2023-03-29T17:15:07.641Z,3.42
2023-03-29T17:17:41.449Z,2.50
2023-03-29T17:20:11.962Z,2.30
2023-03-29T17:22:52.363Z,2.13
2023-03-29T17:25:19.215Z,2.70
2023-03-29T17:27:54.368Z,2.25
2023-03-29T17:30:21.510Z,2.33
2023-03-29T17:33:01.365Z,2.60
2023-03-29T17:35:28.769Z,2.55
2023-03-29T17:38:02.461Z,2.72
2023-03-29T17:40:35.447Z,2.60
2023-03-29T17:43:08.389Z,3.00
2023-03-29T17:45:42.437Z,3.10
2023-03-29T17:48:10.509Z,2.38
2023-03-29T17:50:44.458Z,3.10
2023-03-29T17:53:18.437Z,2.60
2023-03-29T17:55:53.472Z,2.10
2023-03-29T17:58:27.480Z,2.40
2023-03-29T18:00:54.407Z,2.10
2023-03-29T18:03:28.495Z,2.20
2023-03-29T18:05:56.571Z,3.10
2023-03-29T18:08:30.468Z,2.65
2023-03-29T18:11:16.081Z,2.50
2023-03-29T18:13:50.534Z,2.20
2023-03-29T18:16:18.027Z,2.70
2023-03-29T18:18:52.473Z,2.70
2023-03-29T18:21:26.473Z,2.13
2023-03-29T18:24:00.692Z,2.10
2023-03-29T18:26:28.484Z,2.63
2023-03-29T18:29:02.486Z,2.78
2023-03-29T18:31:35.635Z,2.45
2023-03-29T18:34:09.497Z,2.72
2023-03-29T18:36:36.999Z,3.55
2023-03-29T18:39:13.490Z,2.85
2023-03-29T18:41:46.468Z,2.80
2023-03-29T18:44:17.630Z,3.00
2023-03-29T18:46:54.525Z,3.67
2023-03-29T18:49:27.556Z,3.25
2023-03-29T18:52:02.534Z,4.10
2023-03-29T18:54:31.357Z,3.53
2023-03-29T18:57:00.484Z,4.10
2023-03-29T18:59:33.561Z,3.50
2023-03-29T19:02:07.588Z,3.40
2023-03-29T19:04:36.611Z,4.10
2023-03-29T19:07:03.582Z,4.15
2023-03-29T19:09:38.568Z,4.30
2023-03-29T19:12:05.641Z,3.75
2023-03-29T19:14:38.708Z,4.32
2023-03-29T19:17:11.593Z,4.28
2023-03-29T19:19:38.564Z,4.60
2023-03-29T19:22:11.623Z,3.65
2023-03-29T19:24:38.777Z,4.03
2023-03-29T19:27:06.596Z,3.90
2023-03-29T19:29:40.574Z,3.58
2023-03-29T19:32:07.403Z,3.60
2023-03-29T19:34:41.633Z,3.83
2023-03-29T19:37:14.661Z,3.15
2023-03-29T19:39:41.568Z,3.55
2023-03-29T19:42:08.470Z,4.30
2023-03-29T19:44:44.594Z,3.60
2023-03-29T19:47:28.681Z,3.38
2023-03-29T19:49:58.457Z,4.20
2023-03-29T19:52:34.600Z,3.60
2023-03-29T19:55:02.094Z,3.95
2023-03-29T19:57:29.021Z,3.90
2023-03-29T20:00:02.693Z,3.90
2023-03-29T20:02:29.544Z,3.20
2023-03-29T20:05:09.632Z,3.38
2023-03-29T20:07:49.638Z,3.65
2023-03-29T20:10:16.800Z,3.20
2023-03-29T20:12:54.671Z,3.63
2023-03-29T20:15:25.415Z,3.80
2023-03-29T20:18:00.748Z,3.75
2023-03-29T20:20:34.684Z,2.88
2023-03-29T20:23:05.431Z,3.38
2023-03-29T20:25:41.665Z,3.40
2023-03-29T20:28:15.691Z,4.53
2023-03-29T20:30:42.545Z,3.30
2023-03-29T20:33:15.703Z,4.13
2023-03-29T20:35:44.957Z,4.25
2023-03-29T20:38:18.647Z,4.35
2023-03-29T20:40:45.466Z,3.90
2023-03-29T20:43:18.236Z,4.45
2023-03-29T20:45:55.698Z,3.42
2023-03-29T20:48:37.714Z,4.20
2023-03-29T20:51:10.137Z,4.60
2023-03-29T20:53:43.718Z,3.80
2023-03-29T20:56:16.653Z,3.50
2023-03-29T20:58:43.832Z,3.60
2023-03-29T21:01:20.838Z,4.47
2023-03-29T21:03:52.614Z,3.92
2023-03-29T21:06:26.726Z,4.10
2023-03-29T21:08:53.558Z,3.83
2023-03-29T21:11:27.738Z,4.60
2023-03-29T21:13:55.133Z,5.57
2023-03-29T21:16:28.864Z,4.97
2023-03-29T21:18:55.976Z,4.93
2023-03-29T21:21:29.810Z,4.85
2023-03-29T21:23:57.705Z,5.45
2023-03-29T21:26:30.850Z,4.35
2023-03-29T21:29:03.785Z,4.80
2023-03-29T21:31:37.826Z,3.85
2023-03-29T21:34:04.742Z,4.20
2023-03-29T21:36:38.758Z,4.57
2023-03-29T21:39:05.758Z,4.60
2023-03-29T21:41:38.785Z,5.50
2023-03-29T21:44:05.706Z,4.90
2023-03-29T21:46:38.872Z,4.57
2023-03-29T21:49:05.805Z,4.57
2023-03-29T21:51:38.838Z,5.75
2023-03-29T21:54:05.818Z,5.28
2023-03-29T21:56:32.634Z,5.07
2023-03-29T21:59:05.811Z,5.15
2023-03-29T22:01:38.840Z,5.10
2023-03-29T22:04:05.783Z,5.43
2023-03-29T22:06:38.830Z,4.70
2023-03-29T22:09:06.092Z,4.97
2023-03-29T22:11:40.824Z,4.75
2023-03-29T22:14:08.338Z,4.75
2023-03-29T22:16:43.854Z,4.47
2023-03-29T22:19:11.732Z,5.20
2023-03-29T22:21:44.854Z,5.22
2023-03-29T22:24:11.710Z,4.90
2023-03-29T22:26:38.616Z,4.63
2023-03-29T22:29:12.816Z,4.70
2023-03-29T22:31:45.882Z,4.32
2023-03-29T22:34:18.875Z,4.25
2023-03-29T22:36:51.875Z,4.55
2023-03-29T22:39:18.692Z,4.28
2023-03-29T22:41:53.209Z,4.22
2023-03-29T22:44:20.313Z,4.85
2023-03-29T22:46:47.115Z,4.80
2023-03-29T22:49:20.868Z,4.63
2023-03-29T22:51:53.904Z,5.00
2023-03-29T22:54:20.731Z,4.07
2023-03-29T22:56:53.930Z,4.32
2023-03-29T22:59:21.336Z,4.55
2023-03-29T23:01:54.885Z,4.35
2023-03-29T23:04:24.770Z,4.47
2023-03-29T23:06:57.884Z,4.57
2023-03-29T23:09:24.774Z,4.38
2023-03-29T23:11:51.533Z,4.28
2023-03-29T23:14:25.889Z,3.80
2023-03-29T23:16:52.956Z,4.07
2023-03-29T23:19:25.942Z,3.60
2023-03-29T23:21:52.817Z,4.00
2023-03-29T23:24:25.962Z,3.63
2023-03-29T23:26:52.760Z,3.75
2023-03-29T23:29:26.908Z,3.60
2023-03-29T23:31:56.868Z,4.10
2023-03-29T23:34:29.927Z,3.50
2023-03-29T23:36:56.756Z,3.75
2023-03-29T23:39:29.959Z,4.38
2023-03-29T23:41:57.001Z,4.30
2023-03-29T23:44:29.978Z,3.78
2023-03-29T23:46:56.775Z,3.95
2023-03-29T23:49:30.987Z,3.58
2023-03-29T23:52:00.087Z,3.33
2023-03-29T23:54:33.994Z,3.85
2023-03-29T23:57:01.116Z,3.45
2023-03-29T23:59:35.953Z,3.88
